sensor_id;sensor_type;location;lat;lon;timestamp;temperature;humidity
29731;DHT22;16639;51.488;0.152;2023-05-10T00:02:18;13.20;99.90
29731;DHT22;16639;51.488;0.152;2023-05-10T00:04:45;13.20;99.90
29731;DHT22;16639;51.488;0.152;2023-05-10T00:07:12;13.20;99.90
29731;DHT22;16639;51.488;0.152;2023-05-10T00:09:40;13.20;99.90
29731;DHT22;16639;51.488;0.152;2023-05-10T00:12:07;13.20;99.90
29731;DHT22;16639;51.488;0.152;2023-05-10T00:14:35;13.20;99.90
29731;DHT22;16639;51.488;0.152;2023-05-10T00:17:02;13.10;99.90
29731;DHT22;16639;51.488;0.152;2023-05-10T00:19:30;13.20;99.90
29731;DHT22;16639;51.488;0.152;2023-05-10T00:21:57;13.20;99.90
29731;DHT22;16639;51.488;0.152;2023-05-10T00:24:24;13.10;99.90
29731;DHT22;16639;51.488;0.152;2023-05-10T00:26:52;13.10;99.90
29731;DHT22;16639;51.488;0.152;2023-05-10T00:29:19;13.10;99.90
29731;DHT22;16639;51.488;0.152;2023-05-10T00:31:46;13.00;99.90
29731;DHT22;16639;51.488;0.152;2023-05-10T00:34:14;13.10;99.90
29731;DHT22;16639;51.488;0.152;2023-05-10T00:36:41;13.00;99.90
29731;DHT22;16639;51.488;0.152;2023-05-10T00:39:09;13.00;99.90
29731;DHT22;16639;51.488;0.152;2023-05-10T00:41:36;13.00;99.90
29731;DHT22;16639;51.488;0.152;2023-05-10T00:44:04;13.00;99.90
29731;DHT22;16639;51.488;0.152;2023-05-10T00:46:31;13.00;99.90
29731;DHT22;16639;51.488;0.152;2023-05-10T00:48:59;13.00;99.90
29731;DHT22;16639;51.488;0.152;2023-05-10T00:51:27;13.00;99.90
29731;DHT22;16639;51.488;0.152;2023-05-10T00:53:54;13.00;99.90
29731;DHT22;16639;51.488;0.152;2023-05-10T00:56:23;13.00;99.90
29731;DHT22;16639;51.488;0.152;2023-05-10T00:58:51;13.00;99.90
29731;DHT22;16639;51.488;0.152;2023-05-10T01:01:19;13.00;99.90
29731;DHT22;16639;51.488;0.152;2023-05-10T01:03:47;13.00;99.90
29731;DHT22;16639;51.488;0.152;2023-05-10T01:06:14;13.00;99.90
29731;DHT22;16639;51.488;0.152;2023-05-10T01:08:42;13.00;99.90
29731;DHT22;16639;51.488;0.152;2023-05-10T01:11:09;13.00;99.90
29731;DHT22;16639;51.488;0.152;2023-05-10T01:13:38;13.10;99.90
29731;DHT22;16639;51.488;0.152;2023-05-10T01:16:08;13.10;99.90
29731;DHT22;16639;51.488;0.152;2023-05-10T01:18:38;13.00;99.90
29731;DHT22;16639;51.488;0.152;2023-05-10T01:27:14;13.10;99.90
29731;DHT22;16639;51.488;0.152;2023-05-10T01:35:43;13.20;99.90
29731;DHT22;16639;51.488;0.152;2023-05-10T01:44:04;13.10;99.90
29731;DHT22;16639;51.488;0.152;2023-05-10T01:46:38;13.10;99.90
29731;DHT22;16639;51.488;0.152;2023-05-10T01:49:18;13.10;99.90
29731;DHT22;16639;51.488;0.152;2023-05-10T01:51:52;13.10;99.90
29731;DHT22;16639;51.488;0.152;2023-05-10T01:54:22;13.10;99.90
29731;DHT22;16639;51.488;0.152;2023-05-10T01:56:59;12.50;99.90
29731;DHT22;16639;51.488;0.152;2023-05-10T01:59:30;13.10;99.90
29731;DHT22;16639;51.488;0.152;2023-05-10T02:01:59;13.10;99.90
29731;DHT22;16639;51.488;0.152;2023-05-10T02:04:28;13.10;99.90
29731;DHT22;16639;51.488;0.152;2023-05-10T02:06:56;13.20;99.90
29731;DHT22;16639;51.488;0.152;2023-05-10T02:09:25;13.20;99.90
29731;DHT22;16639;51.488;0.152;2023-05-10T02:11:55;13.20;99.90
29731;DHT22;16639;51.488;0.152;2023-05-10T02:14:25;13.20;99.90
29731;DHT22;16639;51.488;0.152;2023-05-10T02:16:54;13.20;99.90
29731;DHT22;16639;51.488;0.152;2023-05-10T02:19:23;13.20;99.90
29731;DHT22;16639;51.488;0.152;2023-05-10T02:21:51;13.20;99.90
29731;DHT22;16639;51.488;0.152;2023-05-10T02:24:19;12.70;99.90
29731;DHT22;16639;51.488;0.152;2023-05-10T02:26:49;13.10;99.90
29731;DHT22;16639;51.488;0.152;2023-05-10T02:29:18;13.10;99.90
29731;DHT22;16639;51.488;0.152;2023-05-10T02:31:46;13.00;99.90
29731;DHT22;16639;51.488;0.152;2023-05-10T02:34:14;13.10;99.90
29731;DHT22;16639;51.488;0.152;2023-05-10T02:36:42;13.10;99.90
29731;DHT22;16639;51.488;0.152;2023-05-10T02:39:10;13.10;99.90
29731;DHT22;16639;51.488;0.152;2023-05-10T02:41:40;13.10;99.90
29731;DHT22;16639;51.488;0.152;2023-05-10T02:44:09;13.10;99.90
29731;DHT22;16639;51.488;0.152;2023-05-10T02:46:36;13.10;99.90
29731;DHT22;16639;51.488;0.152;2023-05-10T02:49:04;13.10;99.90
29731;DHT22;16639;51.488;0.152;2023-05-10T02:51:35;13.10;99.90
29731;DHT22;16639;51.488;0.152;2023-05-10T02:54:33;13.10;99.90
29731;DHT22;16639;51.488;0.152;2023-05-10T02:57:04;13.10;99.90
29731;DHT22;16639;51.488;0.152;2023-05-10T02:59:31;13.10;99.90
29731;DHT22;16639;51.488;0.152;2023-05-10T03:01:59;13.00;99.90
29731;DHT22;16639;51.488;0.152;2023-05-10T03:04:27;13.10;99.90
29731;DHT22;16639;51.488;0.152;2023-05-10T03:06:55;13.00;99.90
29731;DHT22;16639;51.488;0.152;2023-05-10T03:09:22;13.10;99.90
29731;DHT22;16639;51.488;0.152;2023-05-10T03:17:29;13.00;99.90
29731;DHT22;16639;51.488;0.152;2023-05-10T03:20:00;13.00;99.90
29731;DHT22;16639;51.488;0.152;2023-05-10T03:22:38;13.00;99.90
29731;DHT22;16639;51.488;0.152;2023-05-10T03:25:08;12.90;99.90
29731;DHT22;16639;51.488;0.152;2023-05-10T03:27:40;12.90;99.90
29731;DHT22;16639;51.488;0.152;2023-05-10T03:30:11;12.90;99.90
29731;DHT22;16639;51.488;0.152;2023-05-10T03:32:39;12.90;99.90
29731;DHT22;16639;51.488;0.152;2023-05-10T03:35:11;12.90;99.90
29731;DHT22;16639;51.488;0.152;2023-05-10T03:37:39;12.90;99.90
29731;DHT22;16639;51.488;0.152;2023-05-10T03:40:07;12.90;99.90
29731;DHT22;16639;51.488;0.152;2023-05-10T03:42:35;12.90;99.90
29731;DHT22;16639;51.488;0.152;2023-05-10T03:45:03;12.90;99.90
29731;DHT22;16639;51.488;0.152;2023-05-10T03:47:30;12.90;99.90
29731;DHT22;16639;51.488;0.152;2023-05-10T03:49:58;12.90;99.90
29731;DHT22;16639;51.488;0.152;2023-05-10T03:52:25;12.90;99.90
29731;DHT22;16639;51.488;0.152;2023-05-10T03:54:53;12.90;99.90
29731;DHT22;16639;51.488;0.152;2023-05-10T03:57:20;12.90;99.90
29731;DHT22;16639;51.488;0.152;2023-05-10T03:59:48;12.90;99.90
29731;DHT22;16639;51.488;0.152;2023-05-10T04:02:15;12.90;99.90
29731;DHT22;16639;51.488;0.152;2023-05-10T04:04:43;13.00;99.90
29731;DHT22;16639;51.488;0.152;2023-05-10T04:07:10;12.90;99.90
29731;DHT22;16639;51.488;0.152;2023-05-10T04:09:38;12.90;99.90
29731;DHT22;16639;51.488;0.152;2023-05-10T04:12:05;12.90;99.90
29731;DHT22;16639;51.488;0.152;2023-05-10T04:14:35;12.90;99.90
29731;DHT22;16639;51.488;0.152;2023-05-10T04:17:02;12.90;99.90
29731;DHT22;16639;51.488;0.152;2023-05-10T04:19:30;12.90;99.90
29731;DHT22;16639;51.488;0.152;2023-05-10T04:21:58;12.90;99.90
29731;DHT22;16639;51.488;0.152;2023-05-10T04:24:26;12.90;99.90
29731;DHT22;16639;51.488;0.152;2023-05-10T04:26:54;12.90;99.90
29731;DHT22;16639;51.488;0.152;2023-05-10T04:29:23;12.90;99.90
29731;DHT22;16639;51.488;0.152;2023-05-10T04:31:51;12.90;99.90
29731;DHT22;16639;51.488;0.152;2023-05-10T04:34:20;13.00;99.90
29731;DHT22;16639;51.488;0.152;2023-05-10T04:36:48;12.90;99.90
29731;DHT22;16639;51.488;0.152;2023-05-10T04:39:15;12.90;99.90
29731;DHT22;16639;51.488;0.152;2023-05-10T04:41:42;12.90;99.90
29731;DHT22;16639;51.488;0.152;2023-05-10T04:44:10;12.90;99.90
29731;DHT22;16639;51.488;0.152;2023-05-10T04:46:37;12.90;99.90
29731;DHT22;16639;51.488;0.152;2023-05-10T04:49:05;12.80;99.90
29731;DHT22;16639;51.488;0.152;2023-05-10T04:51:32;12.80;99.90
29731;DHT22;16639;51.488;0.152;2023-05-10T04:53:59;12.80;99.90
29731;DHT22;16639;51.488;0.152;2023-05-10T04:56:33;13.70;99.90
29731;DHT22;16639;51.488;0.152;2023-05-10T04:59:01;12.80;99.90
29731;DHT22;16639;51.488;0.152;2023-05-10T05:01:28;12.80;99.90
29731;DHT22;16639;51.488;0.152;2023-05-10T05:03:56;12.80;99.90
29731;DHT22;16639;51.488;0.152;2023-05-10T05:06:24;12.80;99.90
29731;DHT22;16639;51.488;0.152;2023-05-10T05:08:52;12.70;99.90
29731;DHT22;16639;51.488;0.152;2023-05-10T05:11:19;12.90;99.90
29731;DHT22;16639;51.488;0.152;2023-05-10T05:13:48;12.70;99.90
29731;DHT22;16639;51.488;0.152;2023-05-10T05:16:15;12.80;99.90
29731;DHT22;16639;51.488;0.152;2023-05-10T05:18:42;12.70;99.90
29731;DHT22;16639;51.488;0.152;2023-05-10T05:21:19;12.70;99.90
29731;DHT22;16639;51.488;0.152;2023-05-10T05:23:47;12.30;99.90
29731;DHT22;16639;51.488;0.152;2023-05-10T05:26:14;12.80;99.90
29731;DHT22;16639;51.488;0.152;2023-05-10T05:28:42;12.70;99.90
29731;DHT22;16639;51.488;0.152;2023-05-10T05:31:10;12.80;99.90
29731;DHT22;16639;51.488;0.152;2023-05-10T05:33:37;12.70;99.90
29731;DHT22;16639;51.488;0.152;2023-05-10T05:36:05;12.80;99.90
29731;DHT22;16639;51.488;0.152;2023-05-10T05:38:32;12.70;99.90
29731;DHT22;16639;51.488;0.152;2023-05-10T05:41:00;12.70;99.90
29731;DHT22;16639;51.488;0.152;2023-05-10T05:43:28;12.70;99.90
29731;DHT22;16639;51.488;0.152;2023-05-10T05:45:56;12.70;99.90
29731;DHT22;16639;51.488;0.152;2023-05-10T05:48:25;12.70;99.90
29731;DHT22;16639;51.488;0.152;2023-05-10T05:50:56;12.70;99.90
29731;DHT22;16639;51.488;0.152;2023-05-10T05:53:24;12.70;99.90
29731;DHT22;16639;51.488;0.152;2023-05-10T05:55:55;12.70;99.90
29731;DHT22;16639;51.488;0.152;2023-05-10T05:58:23;12.70;99.90
29731;DHT22;16639;51.488;0.152;2023-05-10T06:00:51;12.70;99.90
29731;DHT22;16639;51.488;0.152;2023-05-10T06:03:19;12.60;99.90
29731;DHT22;16639;51.488;0.152;2023-05-10T06:05:47;12.70;99.90
29731;DHT22;16639;51.488;0.152;2023-05-10T06:08:15;12.70;99.90
29731;DHT22;16639;51.488;0.152;2023-05-10T06:10:42;12.80;99.90
29731;DHT22;16639;51.488;0.152;2023-05-10T06:13:10;12.70;99.90
29731;DHT22;16639;51.488;0.152;2023-05-10T06:15:38;12.70;99.90
29731;DHT22;16639;51.488;0.152;2023-05-10T06:18:05;12.90;99.90
29731;DHT22;16639;51.488;0.152;2023-05-10T06:20:33;12.70;99.90
29731;DHT22;16639;51.488;0.152;2023-05-10T06:23:00;12.80;99.90
29731;DHT22;16639;51.488;0.152;2023-05-10T06:25:28;12.80;99.90
29731;DHT22;16639;51.488;0.152;2023-05-10T06:27:55;12.80;99.90
29731;DHT22;16639;51.488;0.152;2023-05-10T06:30:25;12.90;99.90
29731;DHT22;16639;51.488;0.152;2023-05-10T06:32:56;12.90;99.90
29731;DHT22;16639;51.488;0.152;2023-05-10T06:35:24;12.90;99.90
29731;DHT22;16639;51.488;0.152;2023-05-10T06:37:51;12.90;99.90
29731;DHT22;16639;51.488;0.152;2023-05-10T06:40:19;12.90;99.90
29731;DHT22;16639;51.488;0.152;2023-05-10T06:42:47;12.90;99.90
29731;DHT22;16639;51.488;0.152;2023-05-10T06:45:15;12.40;99.90
29731;DHT22;16639;51.488;0.152;2023-05-10T06:47:43;12.90;99.90
29731;DHT22;16639;51.488;0.152;2023-05-10T06:50:11;13.00;99.90
29731;DHT22;16639;51.488;0.152;2023-05-10T06:52:39;12.90;99.90
29731;DHT22;16639;51.488;0.152;2023-05-10T06:55:06;13.00;99.90
29731;DHT22;16639;51.488;0.152;2023-05-10T06:57:34;13.00;99.90
29731;DHT22;16639;51.488;0.152;2023-05-10T07:00:02;13.00;99.90
29731;DHT22;16639;51.488;0.152;2023-05-10T07:02:32;13.00;99.90
29731;DHT22;16639;51.488;0.152;2023-05-10T07:04:59;13.00;99.90
29731;DHT22;16639;51.488;0.152;2023-05-10T07:07:29;13.00;99.90
29731;DHT22;16639;51.488;0.152;2023-05-10T07:09:57;13.00;99.90
29731;DHT22;16639;51.488;0.152;2023-05-10T07:12:25;13.00;99.90
29731;DHT22;16639;51.488;0.152;2023-05-10T07:14:52;13.20;99.90
29731;DHT22;16639;51.488;0.152;2023-05-10T07:17:20;13.10;99.90
29731;DHT22;16639;51.488;0.152;2023-05-10T07:19:48;13.10;99.90
29731;DHT22;16639;51.488;0.152;2023-05-10T07:22:16;13.10;99.90
29731;DHT22;16639;51.488;0.152;2023-05-10T07:24:44;13.10;99.90
29731;DHT22;16639;51.488;0.152;2023-05-10T07:27:20;13.10;99.90
29731;DHT22;16639;51.488;0.152;2023-05-10T07:29:48;13.10;99.90
29731;DHT22;16639;51.488;0.152;2023-05-10T07:32:15;13.20;99.90
29731;DHT22;16639;51.488;0.152;2023-05-10T07:34:43;13.20;99.90
29731;DHT22;16639;51.488;0.152;2023-05-10T07:37:10;13.20;99.90
29731;DHT22;16639;51.488;0.152;2023-05-10T07:39:38;13.30;99.90
29731;DHT22;16639;51.488;0.152;2023-05-10T07:42:06;13.30;99.90
29731;DHT22;16639;51.488;0.152;2023-05-10T07:44:34;13.30;99.90
29731;DHT22;16639;51.488;0.152;2023-05-10T07:47:01;13.40;99.90
29731;DHT22;16639;51.488;0.152;2023-05-10T07:49:29;13.40;99.90
29731;DHT22;16639;51.488;0.152;2023-05-10T07:51:56;13.50;99.90
29731;DHT22;16639;51.488;0.152;2023-05-10T07:54:24;13.60;99.90
29731;DHT22;16639;51.488;0.152;2023-05-10T07:56:51;13.70;99.90
29731;DHT22;16639;51.488;0.152;2023-05-10T07:59:19;13.70;99.90
29731;DHT22;16639;51.488;0.152;2023-05-10T08:01:47;13.70;99.90
29731;DHT22;16639;51.488;0.152;2023-05-10T08:04:14;13.80;99.90
29731;DHT22;16639;51.488;0.152;2023-05-10T08:06:42;13.80;99.90
29731;DHT22;16639;51.488;0.152;2023-05-10T08:09:09;14.50;99.90
29731;DHT22;16639;51.488;0.152;2023-05-10T08:11:39;13.90;99.90
29731;DHT22;16639;51.488;0.152;2023-05-10T08:14:06;13.90;99.90
29731;DHT22;16639;51.488;0.152;2023-05-10T08:16:34;14.00;99.90
29731;DHT22;16639;51.488;0.152;2023-05-10T08:19:01;14.00;99.90
29731;DHT22;16639;51.488;0.152;2023-05-10T08:21:29;14.00;99.90
29731;DHT22;16639;51.488;0.152;2023-05-10T08:23:58;14.00;99.90
29731;DHT22;16639;51.488;0.152;2023-05-10T08:26:25;13.90;99.90
29731;DHT22;16639;51.488;0.152;2023-05-10T08:28:53;14.00;99.90
29731;DHT22;16639;51.488;0.152;2023-05-10T08:31:21;14.00;99.90
29731;DHT22;16639;51.488;0.152;2023-05-10T08:33:48;14.10;99.90
29731;DHT22;16639;51.488;0.152;2023-05-10T08:36:16;14.10;99.90
29731;DHT22;16639;51.488;0.152;2023-05-10T08:38:50;14.40;99.90
29731;DHT22;16639;51.488;0.152;2023-05-10T08:41:23;14.10;99.90
29731;DHT22;16639;51.488;0.152;2023-05-10T08:43:54;14.20;99.90
29731;DHT22;16639;51.488;0.152;2023-05-10T08:46:22;14.10;99.90
29731;DHT22;16639;51.488;0.152;2023-05-10T08:48:51;14.10;99.90
29731;DHT22;16639;51.488;0.152;2023-05-10T08:51:25;14.10;99.90
29731;DHT22;16639;51.488;0.152;2023-05-10T08:53:55;14.20;99.90
29731;DHT22;16639;51.488;0.152;2023-05-10T08:56:23;14.20;99.90
29731;DHT22;16639;51.488;0.152;2023-05-10T08:58:51;14.30;99.90
29731;DHT22;16639;51.488;0.152;2023-05-10T09:01:19;14.30;99.90
29731;DHT22;16639;51.488;0.152;2023-05-10T09:03:47;14.30;99.90
29731;DHT22;16639;51.488;0.152;2023-05-10T09:06:15;14.40;99.90
29731;DHT22;16639;51.488;0.152;2023-05-10T09:08:43;14.40;99.90
29731;DHT22;16639;51.488;0.152;2023-05-10T09:11:12;14.70;99.90
29731;DHT22;16639;51.488;0.152;2023-05-10T09:13:40;14.50;99.90
29731;DHT22;16639;51.488;0.152;2023-05-10T09:16:09;14.60;99.90
29731;DHT22;16639;51.488;0.152;2023-05-10T09:18:47;14.60;99.90
29731;DHT22;16639;51.488;0.152;2023-05-10T09:21:15;15.10;99.90
29731;DHT22;16639;51.488;0.152;2023-05-10T09:23:44;14.50;99.90
29731;DHT22;16639;51.488;0.152;2023-05-10T09:26:14;14.60;99.90
29731;DHT22;16639;51.488;0.152;2023-05-10T09:28:53;14.60;99.90
29731;DHT22;16639;51.488;0.152;2023-05-10T09:31:20;15.00;99.90
29731;DHT22;16639;51.488;0.152;2023-05-10T09:33:49;14.60;99.90
29731;DHT22;16639;51.488;0.152;2023-05-10T09:36:16;14.70;99.90
29731;DHT22;16639;51.488;0.152;2023-05-10T09:38:51;14.70;99.90
29731;DHT22;16639;51.488;0.152;2023-05-10T09:41:21;15.30;99.90
29731;DHT22;16639;51.488;0.152;2023-05-10T09:43:50;14.80;99.90
29731;DHT22;16639;51.488;0.152;2023-05-10T09:46:22;14.80;99.90
29731;DHT22;16639;51.488;0.152;2023-05-10T09:48:50;14.90;99.90
29731;DHT22;16639;51.488;0.152;2023-05-10T09:51:21;14.90;99.90
29731;DHT22;16639;51.488;0.152;2023-05-10T09:54:17;14.80;99.90
29731;DHT22;16639;51.488;0.152;2023-05-10T09:56:45;15.00;99.90
29731;DHT22;16639;51.488;0.152;2023-05-10T09:59:12;15.00;99.90
29731;DHT22;16639;51.488;0.152;2023-05-10T10:01:40;15.10;99.90
29731;DHT22;16639;51.488;0.152;2023-05-10T10:04:09;15.20;99.90
29731;DHT22;16639;51.488;0.152;2023-05-10T10:06:37;15.20;99.90
29731;DHT22;16639;51.488;0.152;2023-05-10T10:09:06;15.20;99.90
29731;DHT22;16639;51.488;0.152;2023-05-10T10:11:35;15.30;99.90
29731;DHT22;16639;51.488;0.152;2023-05-10T10:14:05;15.10;99.90
29731;DHT22;16639;51.488;0.152;2023-05-10T10:16:32;15.40;99.90
29731;DHT22;16639;51.488;0.152;2023-05-10T10:19:00;15.40;99.90
29731;DHT22;16639;51.488;0.152;2023-05-10T10:21:28;15.40;99.90
29731;DHT22;16639;51.488;0.152;2023-05-10T10:23:55;15.50;99.90
29731;DHT22;16639;51.488;0.152;2023-05-10T10:26:23;15.60;99.90
29731;DHT22;16639;51.488;0.152;2023-05-10T10:29:05;15.60;99.90
29731;DHT22;16639;51.488;0.152;2023-05-10T10:31:48;15.80;99.90
29731;DHT22;16639;51.488;0.152;2023-05-10T10:34:27;15.80;99.90
29731;DHT22;16639;51.488;0.152;2023-05-10T10:36:56;15.80;99.90
29731;DHT22;16639;51.488;0.152;2023-05-10T10:39:24;15.90;99.90
29731;DHT22;16639;51.488;0.152;2023-05-10T10:41:56;16.00;99.90
29731;DHT22;16639;51.488;0.152;2023-05-10T10:50:14;16.30;99.90
29731;DHT22;16639;51.488;0.152;2023-05-10T10:52:40;16.40;99.90
29731;DHT22;16639;51.488;0.152;2023-05-10T10:55:12;16.50;99.90
29731;DHT22;16639;51.488;0.152;2023-05-10T11:03:03;17.10;99.90
29731;DHT22;16639;51.488;0.152;2023-05-10T11:13:38;16.50;99.90
29731;DHT22;16639;51.488;0.152;2023-05-10T11:16:21;16.60;99.90
29731;DHT22;16639;51.488;0.152;2023-05-10T11:21:26;16.60;99.90
29731;DHT22;16639;51.488;0.152;2023-05-10T11:23:55;16.50;99.90
29731;DHT22;16639;51.488;0.152;2023-05-10T11:26:34;16.50;99.90
29731;DHT22;16639;51.488;0.152;2023-05-10T11:29:02;16.60;99.90
29731;DHT22;16639;51.488;0.152;2023-05-10T11:31:31;16.60;99.90
29731;DHT22;16639;51.488;0.152;2023-05-10T11:34:00;16.80;99.90
29731;DHT22;16639;51.488;0.152;2023-05-10T11:36:34;16.80;99.90
29731;DHT22;16639;51.488;0.152;2023-05-10T11:39:02;16.90;99.90
29731;DHT22;16639;51.488;0.152;2023-05-10T11:41:32;17.00;99.90
29731;DHT22;16639;51.488;0.152;2023-05-10T11:43:59;17.10;99.90
29731;DHT22;16639;51.488;0.152;2023-05-10T11:46:27;17.20;99.90
29731;DHT22;16639;51.488;0.152;2023-05-10T11:49:02;17.20;99.90
29731;DHT22;16639;51.488;0.152;2023-05-10T11:51:34;17.30;99.90
29731;DHT22;16639;51.488;0.152;2023-05-10T11:54:07;17.30;99.90
29731;DHT22;16639;51.488;0.152;2023-05-10T11:56:40;17.40;99.90
29731;DHT22;16639;51.488;0.152;2023-05-10T11:59:08;17.30;99.90
29731;DHT22;16639;51.488;0.152;2023-05-10T12:01:36;17.40;99.90
29731;DHT22;16639;51.488;0.152;2023-05-10T12:04:04;17.40;99.90
29731;DHT22;16639;51.488;0.152;2023-05-10T12:06:37;17.50;99.90
29731;DHT22;16639;51.488;0.152;2023-05-10T12:09:07;17.50;99.90
29731;DHT22;16639;51.488;0.152;2023-05-10T12:11:39;17.70;99.90
29731;DHT22;16639;51.488;0.152;2023-05-10T12:14:10;17.70;99.90
29731;DHT22;16639;51.488;0.152;2023-05-10T12:16:38;17.60;99.90
29731;DHT22;16639;51.488;0.152;2023-05-10T12:19:05;17.60;99.90
29731;DHT22;16639;51.488;0.152;2023-05-10T12:21:33;17.70;99.90
29731;DHT22;16639;51.488;0.152;2023-05-10T12:24:03;17.70;99.90
29731;DHT22;16639;51.488;0.152;2023-05-10T12:26:32;17.70;99.90
29731;DHT22;16639;51.488;0.152;2023-05-10T12:29:16;17.70;99.90
29731;DHT22;16639;51.488;0.152;2023-05-10T12:31:56;17.70;99.90
29731;DHT22;16639;51.488;0.152;2023-05-10T12:34:26;17.70;99.90
29731;DHT22;16639;51.488;0.152;2023-05-10T12:36:54;17.70;99.90
29731;DHT22;16639;51.488;0.152;2023-05-10T12:39:21;17.80;99.90
29731;DHT22;16639;51.488;0.152;2023-05-10T12:41:49;17.90;99.90
29731;DHT22;16639;51.488;0.152;2023-05-10T12:44:16;17.80;99.90
29731;DHT22;16639;51.488;0.152;2023-05-10T12:46:44;17.70;99.90
29731;DHT22;16639;51.488;0.152;2023-05-10T12:49:11;17.70;99.90
29731;DHT22;16639;51.488;0.152;2023-05-10T12:51:40;17.50;99.90
29731;DHT22;16639;51.488;0.152;2023-05-10T12:54:07;17.60;99.90
29731;DHT22;16639;51.488;0.152;2023-05-10T12:56:34;17.70;99.90
29731;DHT22;16639;51.488;0.152;2023-05-10T12:59:02;17.70;99.90
29731;DHT22;16639;51.488;0.152;2023-05-10T13:01:29;17.70;99.90
29731;DHT22;16639;51.488;0.152;2023-05-10T13:03:56;17.70;99.90
29731;DHT22;16639;51.488;0.152;2023-05-10T13:06:24;17.80;99.90
29731;DHT22;16639;51.488;0.152;2023-05-10T13:08:52;17.60;99.90
29731;DHT22;16639;51.488;0.152;2023-05-10T13:11:19;17.60;99.90
29731;DHT22;16639;51.488;0.152;2023-05-10T13:13:52;17.70;99.90
29731;DHT22;16639;51.488;0.152;2023-05-10T13:16:19;17.80;99.90
29731;DHT22;16639;51.488;0.152;2023-05-10T13:18:47;17.90;99.90
29731;DHT22;16639;51.488;0.152;2023-05-10T13:21:14;18.10;99.90
29731;DHT22;16639;51.488;0.152;2023-05-10T13:23:42;18.20;99.90
29731;DHT22;16639;51.488;0.152;2023-05-10T13:26:09;18.20;99.90
29731;DHT22;16639;51.488;0.152;2023-05-10T13:28:38;18.30;99.90
29731;DHT22;16639;51.488;0.152;2023-05-10T13:31:05;18.30;99.90
29731;DHT22;16639;51.488;0.152;2023-05-10T13:33:33;18.40;99.90
29731;DHT22;16639;51.488;0.152;2023-05-10T13:36:00;18.30;99.90
29731;DHT22;16639;51.488;0.152;2023-05-10T13:38:28;18.40;99.90
29731;DHT22;16639;51.488;0.152;2023-05-10T13:40:55;18.50;99.90
29731;DHT22;16639;51.488;0.152;2023-05-10T13:43:23;18.50;99.90
29731;DHT22;16639;51.488;0.152;2023-05-10T13:45:51;18.60;99.90
29731;DHT22;16639;51.488;0.152;2023-05-10T13:48:19;18.60;99.90
29731;DHT22;16639;51.488;0.152;2023-05-10T13:50:46;18.60;99.90
29731;DHT22;16639;51.488;0.152;2023-05-10T13:53:14;18.50;99.90
29731;DHT22;16639;51.488;0.152;2023-05-10T13:55:42;18.40;99.90
29731;DHT22;16639;51.488;0.152;2023-05-10T13:58:09;18.30;99.90
29731;DHT22;16639;51.488;0.152;2023-05-10T14:00:36;18.10;99.90
29731;DHT22;16639;51.488;0.152;2023-05-10T14:03:04;18.20;99.90
29731;DHT22;16639;51.488;0.152;2023-05-10T14:05:32;18.20;99.90
29731;DHT22;16639;51.488;0.152;2023-05-10T14:07:59;18.20;99.90
29731;DHT22;16639;51.488;0.152;2023-05-10T14:10:27;18.20;99.90
29731;DHT22;16639;51.488;0.152;2023-05-10T14:12:54;18.20;99.90
29731;DHT22;16639;51.488;0.152;2023-05-10T14:15:22;18.10;99.90
29731;DHT22;16639;51.488;0.152;2023-05-10T14:17:49;18.00;99.90
29731;DHT22;16639;51.488;0.152;2023-05-10T14:20:17;18.00;99.90
29731;DHT22;16639;51.488;0.152;2023-05-10T14:22:44;18.10;99.90
29731;DHT22;16639;51.488;0.152;2023-05-10T14:25:12;18.20;99.90
29731;DHT22;16639;51.488;0.152;2023-05-10T14:27:39;18.30;99.90
29731;DHT22;16639;51.488;0.152;2023-05-10T14:30:07;18.30;99.90
29731;DHT22;16639;51.488;0.152;2023-05-10T14:32:35;18.20;99.90
29731;DHT22;16639;51.488;0.152;2023-05-10T14:35:04;18.10;99.90
29731;DHT22;16639;51.488;0.152;2023-05-10T14:37:33;18.10;99.90
29731;DHT22;16639;51.488;0.152;2023-05-10T14:40:02;17.90;99.90
29731;DHT22;16639;51.488;0.152;2023-05-10T14:42:31;17.80;99.90
29731;DHT22;16639;51.488;0.152;2023-05-10T14:44:59;17.70;99.90
29731;DHT22;16639;51.488;0.152;2023-05-10T14:47:26;17.50;99.90
29731;DHT22;16639;51.488;0.152;2023-05-10T14:49:54;17.40;99.90
29731;DHT22;16639;51.488;0.152;2023-05-10T14:52:21;17.40;99.90
29731;DHT22;16639;51.488;0.152;2023-05-10T14:54:48;17.40;99.90
29731;DHT22;16639;51.488;0.152;2023-05-10T14:57:16;17.40;99.90
29731;DHT22;16639;51.488;0.152;2023-05-10T14:59:43;17.30;99.90
29731;DHT22;16639;51.488;0.152;2023-05-10T15:02:11;17.40;99.90
29731;DHT22;16639;51.488;0.152;2023-05-10T15:04:41;17.80;99.90
29731;DHT22;16639;51.488;0.152;2023-05-10T15:07:08;17.40;99.90
29731;DHT22;16639;51.488;0.152;2023-05-10T15:09:36;17.50;99.90
29731;DHT22;16639;51.488;0.152;2023-05-10T15:12:03;17.50;99.90
29731;DHT22;16639;51.488;0.152;2023-05-10T15:14:31;17.50;99.90
29731;DHT22;16639;51.488;0.152;2023-05-10T15:16:59;17.60;99.90
29731;DHT22;16639;51.488;0.152;2023-05-10T15:19:27;17.60;99.90
29731;DHT22;16639;51.488;0.152;2023-05-10T15:21:55;17.70;99.90
29731;DHT22;16639;51.488;0.152;2023-05-10T15:24:23;17.70;99.90
29731;DHT22;16639;51.488;0.152;2023-05-10T15:26:50;17.60;99.90
29731;DHT22;16639;51.488;0.152;2023-05-10T15:29:17;17.10;99.90
29731;DHT22;16639;51.488;0.152;2023-05-10T15:31:48;17.50;99.90
29731;DHT22;16639;51.488;0.152;2023-05-10T15:34:17;17.60;99.90
29731;DHT22;16639;51.488;0.152;2023-05-10T15:36:45;17.60;99.90
29731;DHT22;16639;51.488;0.152;2023-05-10T15:39:12;17.60;99.90
29731;DHT22;16639;51.488;0.152;2023-05-10T15:41:40;17.60;99.90
29731;DHT22;16639;51.488;0.152;2023-05-10T15:44:07;17.60;99.90
29731;DHT22;16639;51.488;0.152;2023-05-10T15:46:35;17.70;99.90
29731;DHT22;16639;51.488;0.152;2023-05-10T15:49:05;17.60;99.90
29731;DHT22;16639;51.488;0.152;2023-05-10T15:51:33;17.50;99.90
29731;DHT22;16639;51.488;0.152;2023-05-10T15:54:03;17.50;99.90
29731;DHT22;16639;51.488;0.152;2023-05-10T15:56:34;17.50;99.90
29731;DHT22;16639;51.488;0.152;2023-05-10T15:59:02;17.50;99.90
29731;DHT22;16639;51.488;0.152;2023-05-10T16:01:30;17.40;99.90
29731;DHT22;16639;51.488;0.152;2023-05-10T16:03:59;17.50;99.90
29731;DHT22;16639;51.488;0.152;2023-05-10T16:06:27;17.50;99.90
29731;DHT22;16639;51.488;0.152;2023-05-10T16:08:54;17.50;99.90
29731;DHT22;16639;51.488;0.152;2023-05-10T16:11:21;17.50;99.90
29731;DHT22;16639;51.488;0.152;2023-05-10T16:13:49;17.90;99.90
29731;DHT22;16639;51.488;0.152;2023-05-10T16:16:16;18.30;99.90
29731;DHT22;16639;51.488;0.152;2023-05-10T16:18:44;18.20;99.90
29731;DHT22;16639;51.488;0.152;2023-05-10T16:21:11;18.30;99.90
29731;DHT22;16639;51.488;0.152;2023-05-10T16:23:39;18.50;99.90
29731;DHT22;16639;51.488;0.152;2023-05-10T16:26:06;18.10;99.90